sensor_id;sensor_type;location;lat;lon;timestamp;temperature;humidity
27559;DHT22;15002;52.028;5.670;2022-12-10T00:01:18;2.50;99.90
27559;DHT22;15002;52.028;5.670;2022-12-10T00:03:45;2.50;99.90
27559;DHT22;15002;52.028;5.670;2022-12-10T00:06:13;2.70;99.90
27559;DHT22;15002;52.028;5.670;2022-12-10T00:08:39;2.60;99.90
27559;DHT22;15002;52.028;5.670;2022-12-10T00:11:08;2.60;99.90
27559;DHT22;15002;52.028;5.670;2022-12-10T00:13:34;2.60;99.90
27559;DHT22;15002;52.028;5.670;2022-12-10T00:16:05;2.60;99.90
27559;DHT22;15002;52.028;5.670;2022-12-10T00:18:31;2.70;99.90
27559;DHT22;15002;52.028;5.670;2022-12-10T00:20:57;2.70;99.90
27559;DHT22;15002;52.028;5.670;2022-12-10T00:23:23;2.70;99.90
27559;DHT22;15002;52.028;5.670;2022-12-10T00:25:49;2.80;99.90
27559;DHT22;15002;52.028;5.670;2022-12-10T00:28:15;2.70;99.90
27559;DHT22;15002;52.028;5.670;2022-12-10T00:30:41;2.60;99.90
27559;DHT22;15002;52.028;5.670;2022-12-10T00:33:06;2.60;99.90
27559;DHT22;15002;52.028;5.670;2022-12-10T00:35:35;2.60;99.90
27559;DHT22;15002;52.028;5.670;2022-12-10T00:38:02;2.60;99.90
27559;DHT22;15002;52.028;5.670;2022-12-10T00:40:27;2.60;99.90
27559;DHT22;15002;52.028;5.670;2022-12-10T00:42:53;2.50;99.90
27559;DHT22;15002;52.028;5.670;2022-12-10T00:45:19;2.50;99.90
27559;DHT22;15002;52.028;5.670;2022-12-10T00:47:44;2.60;99.90
27559;DHT22;15002;52.028;5.670;2022-12-10T00:50:10;2.60;99.90
27559;DHT22;15002;52.028;5.670;2022-12-10T00:52:36;2.50;99.90
27559;DHT22;15002;52.028;5.670;2022-12-10T00:55:01;2.50;99.90
27559;DHT22;15002;52.028;5.670;2022-12-10T00:57:27;2.40;99.90
27559;DHT22;15002;52.028;5.670;2022-12-10T00:59:52;2.40;99.90
27559;DHT22;15002;52.028;5.670;2022-12-10T01:02:18;2.40;99.90
27559;DHT22;15002;52.028;5.670;2022-12-10T01:04:44;2.40;99.90
27559;DHT22;15002;52.028;5.670;2022-12-10T01:07:10;2.50;99.90
27559;DHT22;15002;52.028;5.670;2022-12-10T01:09:36;2.40;99.90
27559;DHT22;15002;52.028;5.670;2022-12-10T01:12:02;2.40;99.90
27559;DHT22;15002;52.028;5.670;2022-12-10T01:14:31;2.40;99.90
27559;DHT22;15002;52.028;5.670;2022-12-10T01:16:59;2.40;99.90
27559;DHT22;15002;52.028;5.670;2022-12-10T01:19:25;2.40;99.90
27559;DHT22;15002;52.028;5.670;2022-12-10T01:21:52;2.20;99.90
27559;DHT22;15002;52.028;5.670;2022-12-10T01:24:19;2.30;99.90
27559;DHT22;15002;52.028;5.670;2022-12-10T01:26:45;2.30;99.90
27559;DHT22;15002;52.028;5.670;2022-12-10T01:29:11;2.30;99.90
27559;DHT22;15002;52.028;5.670;2022-12-10T01:31:38;2.20;99.90
27559;DHT22;15002;52.028;5.670;2022-12-10T01:34:05;2.20;99.90
27559;DHT22;15002;52.028;5.670;2022-12-10T01:36:34;2.20;99.90
27559;DHT22;15002;52.028;5.670;2022-12-10T01:39:01;2.20;99.90
27559;DHT22;15002;52.028;5.670;2022-12-10T01:41:33;2.20;99.90
27559;DHT22;15002;52.028;5.670;2022-12-10T01:46:48;2.20;99.90
27559;DHT22;15002;52.028;5.670;2022-12-10T01:49:39;2.10;99.90
27559;DHT22;15002;52.028;5.670;2022-12-10T01:52:06;2.20;99.90
27559;DHT22;15002;52.028;5.670;2022-12-10T01:54:50;2.20;99.90
27559;DHT22;15002;52.028;5.670;2022-12-10T01:57:19;2.20;99.90
27559;DHT22;15002;52.028;5.670;2022-12-10T01:59:48;2.10;99.90
27559;DHT22;15002;52.028;5.670;2022-12-10T02:02:27;2.20;99.90
27559;DHT22;15002;52.028;5.670;2022-12-10T02:05:19;2.10;99.90
27559;DHT22;15002;52.028;5.670;2022-12-10T02:13:15;2.10;99.90
27559;DHT22;15002;52.028;5.670;2022-12-10T02:18:28;2.10;99.90
27559;DHT22;15002;52.028;5.670;2022-12-10T02:20:59;2.10;99.90
27559;DHT22;15002;52.028;5.670;2022-12-10T02:23:32;2.10;99.90
27559;DHT22;15002;52.028;5.670;2022-12-10T02:29:43;2.10;99.90
27559;DHT22;15002;52.028;5.670;2022-12-10T02:31:39;2.00;99.90
27559;DHT22;15002;52.028;5.670;2022-12-10T02:34:08;2.00;99.90
27559;DHT22;15002;52.028;5.670;2022-12-10T02:36:37;2.00;99.90
27559;DHT22;15002;52.028;5.670;2022-12-10T02:39:08;2.00;99.90
27559;DHT22;15002;52.028;5.670;2022-12-10T02:41:40;2.00;99.90
27559;DHT22;15002;52.028;5.670;2022-12-10T02:44:11;2.00;99.90
27559;DHT22;15002;52.028;5.670;2022-12-10T02:46:38;2.10;99.90
27559;DHT22;15002;52.028;5.670;2022-12-10T02:49:06;2.00;99.90
27559;DHT22;15002;52.028;5.670;2022-12-10T02:51:33;2.00;99.90
27559;DHT22;15002;52.028;5.670;2022-12-10T02:54:05;1.90;99.90
27559;DHT22;15002;52.028;5.670;2022-12-10T02:56:52;1.90;99.90
27559;DHT22;15002;52.028;5.670;2022-12-10T02:59:28;1.90;99.90
27559;DHT22;15002;52.028;5.670;2022-12-10T03:13:38;1.80;99.90
27559;DHT22;15002;52.028;5.670;2022-12-10T03:16:05;1.90;99.90
27559;DHT22;15002;52.028;5.670;2022-12-10T03:18:34;1.90;99.90
27559;DHT22;15002;52.028;5.670;2022-12-10T03:21:04;1.90;99.90
27559;DHT22;15002;52.028;5.670;2022-12-10T03:23:33;2.00;99.90
27559;DHT22;15002;52.028;5.670;2022-12-10T03:26:00;1.90;99.90
27559;DHT22;15002;52.028;5.670;2022-12-10T03:28:27;2.00;99.90
27559;DHT22;15002;52.028;5.670;2022-12-10T03:30:57;2.00;99.90
27559;DHT22;15002;52.028;5.670;2022-12-10T03:33:23;2.00;99.90
27559;DHT22;15002;52.028;5.670;2022-12-10T03:35:49;2.20;99.90
27559;DHT22;15002;52.028;5.670;2022-12-10T03:38:16;2.10;99.90
27559;DHT22;15002;52.028;5.670;2022-12-10T03:40:42;2.20;99.90
27559;DHT22;15002;52.028;5.670;2022-12-10T03:43:07;2.10;99.90
27559;DHT22;15002;52.028;5.670;2022-12-10T03:45:33;2.10;99.90
27559;DHT22;15002;52.028;5.670;2022-12-10T03:47:59;2.10;99.90
27559;DHT22;15002;52.028;5.670;2022-12-10T03:50:24;2.20;99.90
27559;DHT22;15002;52.028;5.670;2022-12-10T03:52:50;2.20;99.90
27559;DHT22;15002;52.028;5.670;2022-12-10T03:55:16;2.20;99.90
27559;DHT22;15002;52.028;5.670;2022-12-10T03:57:42;2.20;99.90
27559;DHT22;15002;52.028;5.670;2022-12-10T04:00:08;2.20;99.90
27559;DHT22;15002;52.028;5.670;2022-12-10T04:02:33;2.20;99.90
27559;DHT22;15002;52.028;5.670;2022-12-10T04:04:59;2.20;99.90
27559;DHT22;15002;52.028;5.670;2022-12-10T04:07:25;2.20;99.90
27559;DHT22;15002;52.028;5.670;2022-12-10T04:09:50;2.20;99.90
27559;DHT22;15002;52.028;5.670;2022-12-10T04:12:16;2.20;99.90
27559;DHT22;15002;52.028;5.670;2022-12-10T04:14:41;2.20;99.90
27559;DHT22;15002;52.028;5.670;2022-12-10T04:17:26;2.30;99.90
27559;DHT22;15002;52.028;5.670;2022-12-10T04:19:51;2.20;99.90
27559;DHT22;15002;52.028;5.670;2022-12-10T04:22:17;2.20;99.90
27559;DHT22;15002;52.028;5.670;2022-12-10T04:25:01;2.10;99.90
27559;DHT22;15002;52.028;5.670;2022-12-10T04:27:49;2.00;99.90
27559;DHT22;15002;52.028;5.670;2022-12-10T04:30:15;2.10;99.90
27559;DHT22;15002;52.028;5.670;2022-12-10T04:32:41;2.20;99.90
27559;DHT22;15002;52.028;5.670;2022-12-10T04:35:07;2.10;99.90
27559;DHT22;15002;52.028;5.670;2022-12-10T04:37:33;2.00;99.90
27559;DHT22;15002;52.028;5.670;2022-12-10T04:39:59;2.10;99.90
27559;DHT22;15002;52.028;5.670;2022-12-10T04:42:24;2.10;99.90
27559;DHT22;15002;52.028;5.670;2022-12-10T04:44:50;2.00;99.90
27559;DHT22;15002;52.028;5.670;2022-12-10T04:47:15;2.10;99.90
27559;DHT22;15002;52.028;5.670;2022-12-10T04:49:41;2.10;99.90
27559;DHT22;15002;52.028;5.670;2022-12-10T04:52:11;2.00;99.90
27559;DHT22;15002;52.028;5.670;2022-12-10T04:54:37;2.10;99.90
27559;DHT22;15002;52.028;5.670;2022-12-10T04:57:02;2.00;99.90
27559;DHT22;15002;52.028;5.670;2022-12-10T04:59:28;2.10;99.90
27559;DHT22;15002;52.028;5.670;2022-12-10T05:01:54;2.10;99.90
27559;DHT22;15002;52.028;5.670;2022-12-10T05:04:19;2.10;99.90
27559;DHT22;15002;52.028;5.670;2022-12-10T05:06:47;2.20;99.90
27559;DHT22;15002;52.028;5.670;2022-12-10T05:09:14;2.20;99.90
27559;DHT22;15002;52.028;5.670;2022-12-10T05:11:40;2.20;99.90
27559;DHT22;15002;52.028;5.670;2022-12-10T05:14:06;2.20;99.90
27559;DHT22;15002;52.028;5.670;2022-12-10T05:16:33;2.20;99.90
27559;DHT22;15002;52.028;5.670;2022-12-10T05:18:59;2.10;99.90
27559;DHT22;15002;52.028;5.670;2022-12-10T05:21:27;2.10;99.90
27559;DHT22;15002;52.028;5.670;2022-12-10T05:24:16;2.10;99.90
27559;DHT22;15002;52.028;5.670;2022-12-10T05:26:43;2.10;99.90
27559;DHT22;15002;52.028;5.670;2022-12-10T05:29:09;2.20;99.90
27559;DHT22;15002;52.028;5.670;2022-12-10T05:31:35;2.20;99.90
27559;DHT22;15002;52.028;5.670;2022-12-10T05:34:01;2.10;99.90
27559;DHT22;15002;52.028;5.670;2022-12-10T05:36:30;2.20;99.90
27559;DHT22;15002;52.028;5.670;2022-12-10T05:38:57;2.10;99.90
27559;DHT22;15002;52.028;5.670;2022-12-10T05:41:26;2.00;99.90
27559;DHT22;15002;52.028;5.670;2022-12-10T05:43:54;2.00;99.90
27559;DHT22;15002;52.028;5.670;2022-12-10T05:46:25;2.10;99.90
27559;DHT22;15002;52.028;5.670;2022-12-10T05:48:51;2.00;99.90
27559;DHT22;15002;52.028;5.670;2022-12-10T05:51:20;2.20;99.90
27559;DHT22;15002;52.028;5.670;2022-12-10T05:53:47;2.10;99.90
27559;DHT22;15002;52.028;5.670;2022-12-10T05:56:15;2.10;99.90
27559;DHT22;15002;52.028;5.670;2022-12-10T05:58:42;2.10;99.90
27559;DHT22;15002;52.028;5.670;2022-12-10T06:01:13;2.10;99.90
27559;DHT22;15002;52.028;5.670;2022-12-10T06:03:39;2.10;99.90
27559;DHT22;15002;52.028;5.670;2022-12-10T06:06:05;2.10;99.90
27559;DHT22;15002;52.028;5.670;2022-12-10T06:08:32;2.00;99.90
27559;DHT22;15002;52.028;5.670;2022-12-10T06:11:06;2.00;99.90
27559;DHT22;15002;52.028;5.670;2022-12-10T06:13:33;1.90;99.90
27559;DHT22;15002;52.028;5.670;2022-12-10T06:15:58;2.10;99.90
27559;DHT22;15002;52.028;5.670;2022-12-10T06:18:24;2.10;99.90
27559;DHT22;15002;52.028;5.670;2022-12-10T06:20:50;2.10;99.90
27559;DHT22;15002;52.028;5.670;2022-12-10T06:23:16;2.20;99.90
27559;DHT22;15002;52.028;5.670;2022-12-10T06:25:41;2.10;99.90
27559;DHT22;15002;52.028;5.670;2022-12-10T06:28:07;2.10;99.90
27559;DHT22;15002;52.028;5.670;2022-12-10T06:30:34;2.10;99.90
27559;DHT22;15002;52.028;5.670;2022-12-10T06:33:00;2.00;99.90
27559;DHT22;15002;52.028;5.670;2022-12-10T06:35:25;2.00;99.90
27559;DHT22;15002;52.028;5.670;2022-12-10T06:37:51;2.00;99.90
27559;DHT22;15002;52.028;5.670;2022-12-10T06:40:17;2.10;99.90
27559;DHT22;15002;52.028;5.670;2022-12-10T06:42:43;2.10;99.90
27559;DHT22;15002;52.028;5.670;2022-12-10T06:45:09;2.10;99.90
27559;DHT22;15002;52.028;5.670;2022-12-10T06:47:35;2.20;99.90
27559;DHT22;15002;52.028;5.670;2022-12-10T06:50:01;2.10;99.90
27559;DHT22;15002;52.028;5.670;2022-12-10T06:52:26;2.10;99.90
27559;DHT22;15002;52.028;5.670;2022-12-10T06:54:52;2.10;99.90
27559;DHT22;15002;52.028;5.670;2022-12-10T06:57:20;2.10;99.90
27559;DHT22;15002;52.028;5.670;2022-12-10T06:59:46;2.10;99.90
27559;DHT22;15002;52.028;5.670;2022-12-10T07:02:12;2.10;99.90
27559;DHT22;15002;52.028;5.670;2022-12-10T07:04:38;2.20;99.90
27559;DHT22;15002;52.028;5.670;2022-12-10T07:07:05;2.20;99.90
27559;DHT22;15002;52.028;5.670;2022-12-10T07:09:30;2.10;99.90
27559;DHT22;15002;52.028;5.670;2022-12-10T07:11:57;2.10;99.90
27559;DHT22;15002;52.028;5.670;2022-12-10T07:14:23;2.10;99.90
27559;DHT22;15002;52.028;5.670;2022-12-10T07:16:48;2.10;99.90
27559;DHT22;15002;52.028;5.670;2022-12-10T07:19:14;2.10;99.90
27559;DHT22;15002;52.028;5.670;2022-12-10T07:21:41;2.10;99.90
27559;DHT22;15002;52.028;5.670;2022-12-10T07:24:15;2.10;99.90
27559;DHT22;15002;52.028;5.670;2022-12-10T07:26:43;2.20;99.90
27559;DHT22;15002;52.028;5.670;2022-12-10T07:29:14;2.10;99.90
27559;DHT22;15002;52.028;5.670;2022-12-10T07:31:40;2.00;99.90
27559;DHT22;15002;52.028;5.670;2022-12-10T07:34:07;2.00;99.90
27559;DHT22;15002;52.028;5.670;2022-12-10T07:36:32;2.00;99.90
27559;DHT22;15002;52.028;5.670;2022-12-10T07:38:58;2.00;99.90
27559;DHT22;15002;52.028;5.670;2022-12-10T07:41:24;2.10;99.90
27559;DHT22;15002;52.028;5.670;2022-12-10T07:43:50;2.10;99.90
27559;DHT22;15002;52.028;5.670;2022-12-10T07:46:22;2.10;99.90
27559;DHT22;15002;52.028;5.670;2022-12-10T07:48:48;2.00;99.90
27559;DHT22;15002;52.028;5.670;2022-12-10T07:51:16;2.00;99.90
27559;DHT22;15002;52.028;5.670;2022-12-10T07:53:42;2.10;99.90
27559;DHT22;15002;52.028;5.670;2022-12-10T07:56:09;2.10;99.90
27559;DHT22;15002;52.028;5.670;2022-12-10T07:58:35;2.00;99.90
27559;DHT22;15002;52.028;5.670;2022-12-10T08:01:15;2.00;99.90
27559;DHT22;15002;52.028;5.670;2022-12-10T08:03:41;2.10;99.90
27559;DHT22;15002;52.028;5.670;2022-12-10T08:06:11;2.10;99.90
27559;DHT22;15002;52.028;5.670;2022-12-10T08:08:37;2.10;99.90
27559;DHT22;15002;52.028;5.670;2022-12-10T08:11:04;2.10;99.90
27559;DHT22;15002;52.028;5.670;2022-12-10T08:13:31;2.20;99.90
27559;DHT22;15002;52.028;5.670;2022-12-10T08:16:05;2.20;99.90
27559;DHT22;15002;52.028;5.670;2022-12-10T08:18:32;2.20;99.90
27559;DHT22;15002;52.028;5.670;2022-12-10T08:21:07;2.20;99.90
27559;DHT22;15002;52.028;5.670;2022-12-10T08:23:33;2.20;99.90
27559;DHT22;15002;52.028;5.670;2022-12-10T08:26:07;2.10;99.90
27559;DHT22;15002;52.028;5.670;2022-12-10T08:28:33;2.30;99.90
27559;DHT22;15002;52.028;5.670;2022-12-10T08:30:59;2.30;99.90
27559;DHT22;15002;52.028;5.670;2022-12-10T08:33:25;2.20;99.90
27559;DHT22;15002;52.028;5.670;2022-12-10T08:35:51;2.30;99.90
27559;DHT22;15002;52.028;5.670;2022-12-10T08:38:16;2.30;99.90
27559;DHT22;15002;52.028;5.670;2022-12-10T08:40:42;2.30;99.90
27559;DHT22;15002;52.028;5.670;2022-12-10T08:43:08;2.30;99.90
27559;DHT22;15002;52.028;5.670;2022-12-10T08:45:34;2.20;99.90
27559;DHT22;15002;52.028;5.670;2022-12-10T08:48:01;2.20;99.90
27559;DHT22;15002;52.028;5.670;2022-12-10T08:50:27;2.20;99.90
27559;DHT22;15002;52.028;5.670;2022-12-10T08:52:52;2.20;99.90
27559;DHT22;15002;52.028;5.670;2022-12-10T08:55:18;2.20;99.90
27559;DHT22;15002;52.028;5.670;2022-12-10T08:57:43;2.20;99.90
27559;DHT22;15002;52.028;5.670;2022-12-10T09:00:10;2.20;99.90
27559;DHT22;15002;52.028;5.670;2022-12-10T09:02:35;2.20;99.90
27559;DHT22;15002;52.028;5.670;2022-12-10T09:05:01;2.20;99.90
27559;DHT22;15002;52.028;5.670;2022-12-10T09:07:27;2.20;99.90
27559;DHT22;15002;52.028;5.670;2022-12-10T09:09:52;2.20;99.90
27559;DHT22;15002;52.028;5.670;2022-12-10T09:12:18;2.20;99.90
27559;DHT22;15002;52.028;5.670;2022-12-10T09:14:44;2.20;99.90
27559;DHT22;15002;52.028;5.670;2022-12-10T09:17:09;2.20;99.90
27559;DHT22;15002;52.028;5.670;2022-12-10T09:19:35;2.20;99.90
27559;DHT22;15002;52.028;5.670;2022-12-10T09:22:01;2.00;99.90
27559;DHT22;15002;52.028;5.670;2022-12-10T09:24:26;2.10;99.90
27559;DHT22;15002;52.028;5.670;2022-12-10T09:26:52;2.10;99.90
27559;DHT22;15002;52.028;5.670;2022-12-10T09:29:17;2.10;99.90
27559;DHT22;15002;52.028;5.670;2022-12-10T09:31:43;2.20;99.90
27559;DHT22;15002;52.028;5.670;2022-12-10T09:34:09;2.30;99.90
27559;DHT22;15002;52.028;5.670;2022-12-10T09:36:34;2.30;99.90
27559;DHT22;15002;52.028;5.670;2022-12-10T09:39:00;2.30;99.90
27559;DHT22;15002;52.028;5.670;2022-12-10T09:41:54;2.30;99.90
27559;DHT22;15002;52.028;5.670;2022-12-10T09:44:38;2.20;99.90
27559;DHT22;15002;52.028;5.670;2022-12-10T09:47:09;2.30;99.90
27559;DHT22;15002;52.028;5.670;2022-12-10T09:52:23;2.40;99.90
27559;DHT22;15002;52.028;5.670;2022-12-10T09:55:02;2.50;99.90
27559;DHT22;15002;52.028;5.670;2022-12-10T09:57:35;2.40;99.90
27559;DHT22;15002;52.028;5.670;2022-12-10T10:02:50;2.50;99.90
27559;DHT22;15002;52.028;5.670;2022-12-10T10:05:24;2.50;99.90
27559;DHT22;15002;52.028;5.670;2022-12-10T10:07:55;2.60;99.90
27559;DHT22;15002;52.028;5.670;2022-12-10T10:10:26;2.60;99.90
27559;DHT22;15002;52.028;5.670;2022-12-10T10:15:36;2.50;99.90
27559;DHT22;15002;52.028;5.670;2022-12-10T10:18:33;2.40;99.90
27559;DHT22;15002;52.028;5.670;2022-12-10T10:21:00;2.50;99.90
27559;DHT22;15002;52.028;5.670;2022-12-10T10:23:26;2.50;99.90
27559;DHT22;15002;52.028;5.670;2022-12-10T10:25:52;2.40;99.90
27559;DHT22;15002;52.028;5.670;2022-12-10T10:28:22;2.40;99.90
27559;DHT22;15002;52.028;5.670;2022-12-10T10:30:50;2.50;99.90
27559;DHT22;15002;52.028;5.670;2022-12-10T10:33:17;2.50;99.90
27559;DHT22;15002;52.028;5.670;2022-12-10T10:35:44;2.50;99.90
27559;DHT22;15002;52.028;5.670;2022-12-10T10:38:21;2.50;99.90
27559;DHT22;15002;52.028;5.670;2022-12-10T10:40:53;2.60;99.90
27559;DHT22;15002;52.028;5.670;2022-12-10T10:45:51;2.60;99.90
27559;DHT22;15002;52.028;5.670;2022-12-10T10:48:19;2.70;99.90
27559;DHT22;15002;52.028;5.670;2022-12-10T10:50:51;2.70;99.90
27559;DHT22;15002;52.028;5.670;2022-12-10T10:56:39;2.80;99.90
27559;DHT22;15002;52.028;5.670;2022-12-10T11:01:56;2.80;99.90
27559;DHT22;15002;52.028;5.670;2022-12-10T11:04:29;2.90;99.90
27559;DHT22;15002;52.028;5.670;2022-12-10T11:06:56;2.90;99.90
27559;DHT22;15002;52.028;5.670;2022-12-10T11:09:28;2.90;99.90
27559;DHT22;15002;52.028;5.670;2022-12-10T11:14:39;2.80;99.90
27559;DHT22;15002;52.028;5.670;2022-12-10T11:19:41;2.70;99.90
27559;DHT22;15002;52.028;5.670;2022-12-10T11:22:28;2.70;99.90
27559;DHT22;15002;52.028;5.670;2022-12-10T11:24:54;2.80;99.90
27559;DHT22;15002;52.028;5.670;2022-12-10T11:27:44;2.70;99.90
27559;DHT22;15002;52.028;5.670;2022-12-10T11:30:17;2.70;99.90
27559;DHT22;15002;52.028;5.670;2022-12-10T11:39:10;2.80;99.90
27559;DHT22;15002;52.028;5.670;2022-12-10T11:41:58;2.70;99.90
27559;DHT22;15002;52.028;5.670;2022-12-10T11:49:38;2.80;99.90
27559;DHT22;15002;52.028;5.670;2022-12-10T12:03:15;2.80;99.90
27559;DHT22;15002;52.028;5.670;2022-12-10T12:06:07;2.90;99.90
27559;DHT22;15002;52.028;5.670;2022-12-10T12:09:01;2.80;99.90
27559;DHT22;15002;52.028;5.670;2022-12-10T12:12:10;2.90;99.90
27559;DHT22;15002;52.028;5.670;2022-12-10T12:14:51;2.80;99.90
27559;DHT22;15002;52.028;5.670;2022-12-10T12:17:27;2.80;99.90
27559;DHT22;15002;52.028;5.670;2022-12-10T12:19:59;2.80;99.90
27559;DHT22;15002;52.028;5.670;2022-12-10T12:22:32;2.80;99.90
27559;DHT22;15002;52.028;5.670;2022-12-10T12:25:26;2.80;99.90
27559;DHT22;15002;52.028;5.670;2022-12-10T12:28:09;2.90;99.90
27559;DHT22;15002;52.028;5.670;2022-12-10T12:30:37;3.00;99.90
27559;DHT22;15002;52.028;5.670;2022-12-10T12:33:10;2.90;99.90
27559;DHT22;15002;52.028;5.670;2022-12-10T12:35:49;2.90;99.90
27559;DHT22;15002;52.028;5.670;2022-12-10T12:38:21;2.80;99.90
27559;DHT22;15002;52.028;5.670;2022-12-10T12:41:04;2.90;99.90
27559;DHT22;15002;52.028;5.670;2022-12-10T12:46:01;2.80;99.90
27559;DHT22;15002;52.028;5.670;2022-12-10T12:48:29;2.90;99.90
27559;DHT22;15002;52.028;5.670;2022-12-10T12:51:05;2.90;99.90
27559;DHT22;15002;52.028;5.670;2022-12-10T12:53:34;2.90;99.90
27559;DHT22;15002;52.028;5.670;2022-12-10T12:56:17;3.00;99.90
27559;DHT22;15002;52.028;5.670;2022-12-10T12:58:55;2.80;99.90
27559;DHT22;15002;52.028;5.670;2022-12-10T13:04:14;2.80;99.90
27559;DHT22;15002;52.028;5.670;2022-12-10T13:06:41;2.80;99.90
27559;DHT22;15002;52.028;5.670;2022-12-10T13:14:32;2.80;99.90
27559;DHT22;15002;52.028;5.670;2022-12-10T13:19:28;3.00;99.90
27559;DHT22;15002;52.028;5.670;2022-12-10T13:25:09;2.90;99.90
27559;DHT22;15002;52.028;5.670;2022-12-10T13:27:35;3.00;99.90
27559;DHT22;15002;52.028;5.670;2022-12-10T13:38:16;2.80;99.90
27559;DHT22;15002;52.028;5.670;2022-12-10T13:40:38;2.90;99.90
27559;DHT22;15002;52.028;5.670;2022-12-10T13:49:19;2.90;99.90
27559;DHT22;15002;52.028;5.670;2022-12-10T13:51:58;3.00;99.90
27559;DHT22;15002;52.028;5.670;2022-12-10T13:59:51;3.00;99.90
27559;DHT22;15002;52.028;5.670;2022-12-10T14:02:45;3.00;99.90
27559;DHT22;15002;52.028;5.670;2022-12-10T14:05:30;2.90;99.90
27559;DHT22;15002;52.028;5.670;2022-12-10T14:08:00;3.00;99.90
27559;DHT22;15002;52.028;5.670;2022-12-10T14:10:31;2.90;99.90
27559;DHT22;15002;52.028;5.670;2022-12-10T14:12:59;2.90;99.90
27559;DHT22;15002;52.028;5.670;2022-12-10T14:15:26;2.90;99.90
27559;DHT22;15002;52.028;5.670;2022-12-10T14:18:01;2.90;99.90
27559;DHT22;15002;52.028;5.670;2022-12-10T14:20:31;2.90;99.90
27559;DHT22;15002;52.028;5.670;2022-12-10T14:23:03;3.00;99.90
27559;DHT22;15002;52.028;5.670;2022-12-10T14:25:48;2.90;99.90
27559;DHT22;15002;52.028;5.670;2022-12-10T14:28:18;3.00;99.90
27559;DHT22;15002;52.028;5.670;2022-12-10T14:30:48;3.00;99.90
27559;DHT22;15002;52.028;5.670;2022-12-10T14:33:17;3.00;99.90
27559;DHT22;15002;52.028;5.670;2022-12-10T14:35:47;2.90;99.90
27559;DHT22;15002;52.028;5.670;2022-12-10T14:38:31;2.90;99.90
27559;DHT22;15002;52.028;5.670;2022-12-10T14:40:58;2.90;99.90
27559;DHT22;15002;52.028;5.670;2022-12-10T14:46:00;3.00;99.90
27559;DHT22;15002;52.028;5.670;2022-12-10T14:48:27;3.00;99.90
27559;DHT22;15002;52.028;5.670;2022-12-10T14:50:53;3.00;99.90
27559;DHT22;15002;52.028;5.670;2022-12-10T14:53:26;3.00;99.90
27559;DHT22;15002;52.028;5.670;2022-12-10T14:56:05;3.00;99.90
27559;DHT22;15002;52.028;5.670;2022-12-10T14:58:41;3.10;99.90
27559;DHT22;15002;52.028;5.670;2022-12-10T15:04:00;3.10;99.90
27559;DHT22;15002;52.028;5.670;2022-12-10T15:06:26;3.00;99.90
27559;DHT22;15002;52.028;5.670;2022-12-10T15:08:55;3.00;99.90
27559;DHT22;15002;52.028;5.670;2022-12-10T15:11:23;3.00;99.90
27559;DHT22;15002;52.028;5.670;2022-12-10T15:13:52;2.90;99.90
27559;DHT22;15002;52.028;5.670;2022-12-10T15:16:42;2.90;99.90
27559;DHT22;15002;52.028;5.670;2022-12-10T15:22:24;2.90;99.90
27559;DHT22;15002;52.028;5.670;2022-12-10T15:24:47;2.90;99.90
27559;DHT22;15002;52.028;5.670;2022-12-10T15:27:21;2.90;99.90
27559;DHT22;15002;52.028;5.670;2022-12-10T15:29:48;2.80;99.90
27559;DHT22;15002;52.028;5.670;2022-12-10T15:32:25;2.90;99.90
27559;DHT22;15002;52.028;5.670;2022-12-10T15:34:55;2.90;99.90
27559;DHT22;15002;52.028;5.670;2022-12-10T15:37:24;2.90;99.90
27559;DHT22;15002;52.028;5.670;2022-12-10T15:39:53;2.90;99.90
27559;DHT22;15002;52.028;5.670;2022-12-10T15:45:08;2.90;99.90
27559;DHT22;15002;52.028;5.670;2022-12-10T15:47:36;3.00;99.90
27559;DHT22;15002;52.028;5.670;2022-12-10T15:50:04;2.90;99.90
27559;DHT22;15002;52.028;5.670;2022-12-10T15:52:30;3.00;99.90
27559;DHT22;15002;52.028;5.670;2022-12-10T15:54:57;3.00;99.90
27559;DHT22;15002;52.028;5.670;2022-12-10T15:57:26;3.00;99.90
27559;DHT22;15002;52.028;5.670;2022-12-10T15:59:54;3.00;99.90
27559;DHT22;15002;52.028;5.670;2022-12-10T16:02:39;3.00;99.90
27559;DHT22;15002;52.028;5.670;2022-12-10T16:05:44;3.00;99.90
27559;DHT22;15002;52.028;5.670;2022-12-10T16:08:22;3.10;99.90
27559;DHT22;15002;52.028;5.670;2022-12-10T16:10:51;3.10;99.90
27559;DHT22;15002;52.028;5.670;2022-12-10T16:13:23;3.10;99.90
27559;DHT22;15002;52.028;5.670;2022-12-10T16:15:55;3.10;99.90
27559;DHT22;15002;52.028;5.670;2022-12-10T16:18:23;3.10;99.90
27559;DHT22;15002;52.028;5.670;2022-12-10T16:20:49;3.10;99.90
27559;DHT22;15002;52.028;5.670;2022-12-10T16:23:15;3.20;99.90
27559;DHT22;15002;52.028;5.670;2022-12-10T16:25:41;3.20;99.90
27559;DHT22;15002;52.028;5.670;2022-12-10T16:28:12;3.20;99.90
27559;DHT22;15002;52.028;5.670;2022-12-10T16:30:44;3.30;99.90
27559;DHT22;15002;52.028;5.670;2022-12-10T16:33:11;3.20;99.90
27559;DHT22;15002;52.028;5.670;2022-12-10T16:35:37;3.10;99.90
27559;DHT22;15002;52.028;5.670;2022-12-10T16:38:02;3.20;99.90
27559;DHT22;15002;52.028;5.670;2022-12-10T16:40:29;3.30;99.90
27559;DHT22;15002;52.028;5.670;2022-12-10T16:42:56;3.20;99.90
27559;DHT22;15002;52.028;5.670;2022-12-10T16:45:31;3.20;99.90
27559;DHT22;15002;52.028;5.670;2022-12-10T16:47:58;3.20;99.90
27559;DHT22;15002;52.028;5.670;2022-12-10T16:50:24;3.20;99.90
27559;DHT22;15002;52.028;5.670;2022-12-10T16:52:51;3.20;99.90
27559;DHT22;15002;52.028;5.670;2022-12-10T16:55:23;3.20;99.90
27559;DHT22;15002;52.028;5.670;2022-12-10T16:57:51;3.30;99.90
27559;DHT22;15002;52.028;5.670;2022-12-10T17:00:19;3.40;99.90
27559;DHT22;15002;52.028;5.670;2022-12-10T17:02:46;3.30;99.90
27559;DHT22;15002;52.028;5.670;2022-12-10T17:07:42;3.30;99.90
27559;DHT22;15002;52.028;5.670;2022-12-10T17:10:12;3.30;99.90
27559;DHT22;15002;52.028;5.670;2022-12-10T17:12:38;3.30;99.90
27559;DHT22;15002;52.028;5.670;2022-12-10T17:15:04;3.30;99.90
27559;DHT22;15002;52.028;5.670;2022-12-10T17:17:30;3.30;99.90
27559;DHT22;15002;52.028;5.670;2022-12-10T17:19:56;3.40;99.90
27559;DHT22;15002;52.028;5.670;2022-12-10T17:22:22;3.40;99.90
27559;DHT22;15002;52.028;5.670;2022-12-10T17:24:48;3.30;99.90
27559;DHT22;15002;52.028;5.670;2022-12-10T17:27:16;3.30;99.90
27559;DHT22;15002;52.028;5.670;2022-12-10T17:29:44;3.30;99.90
27559;DHT22;15002;52.028;5.670;2022-12-10T17:32:15;3.40;99.90
27559;DHT22;15002;52.028;5.670;2022-12-10T17:34:40;3.40;99.90
27559;DHT22;15002;52.028;5.670;2022-12-10T17:37:17;3.40;99.90
27559;DHT22;15002;52.028;5.670;2022-12-10T17:39:44;3.30;99.90
27559;DHT22;15002;52.028;5.670;2022-12-10T17:42:10;3.40;99.90
27559;DHT22;15002;52.028;5.670;2022-12-10T17:44:36;3.40;99.90
27559;DHT22;15002;52.028;5.670;2022-12-10T17:47:19;3.40;99.90
27559;DHT22;15002;52.028;5.670;2022-12-10T17:49:45;3.40;99.90
27559;DHT22;15002;52.028;5.670;2022-12-10T17:52:11;3.50;99.90
27559;DHT22;15002;52.028;5.670;2022-12-10T17:54:36;3.40;99.90
27559;DHT22;15002;52.028;5.670;2022-12-10T17:57:04;3.50;99.90
27559;DHT22;15002;52.028;5.670;2022-12-10T17:59:30;3.40;99.90